sensor_id;sensor_type;location;lat;lon;timestamp;temperature;humidity
7384;DHT22;3733;47.994;8.820;2023-05-13T00:00:13;10.90;99.90
7384;DHT22;3733;47.994;8.820;2023-05-13T00:02:39;10.90;99.90
7384;DHT22;3733;47.994;8.820;2023-05-13T00:05:04;10.90;99.90
7384;DHT22;3733;47.994;8.820;2023-05-13T00:07:30;10.90;99.90
7384;DHT22;3733;47.994;8.820;2023-05-13T00:09:56;10.90;99.90
7384;DHT22;3733;47.994;8.820;2023-05-13T00:12:21;10.90;99.90
7384;DHT22;3733;47.994;8.820;2023-05-13T00:14:47;10.90;99.90
7384;DHT22;3733;47.994;8.820;2023-05-13T00:17:13;10.90;99.90
7384;DHT22;3733;47.994;8.820;2023-05-13T00:19:39;10.80;99.90
7384;DHT22;3733;47.994;8.820;2023-05-13T00:22:05;10.90;99.90
7384;DHT22;3733;47.994;8.820;2023-05-13T00:24:30;10.90;99.90
7384;DHT22;3733;47.994;8.820;2023-05-13T00:26:56;10.80;99.90
7384;DHT22;3733;47.994;8.820;2023-05-13T00:29:22;10.80;99.90
7384;DHT22;3733;47.994;8.820;2023-05-13T00:31:47;10.80;99.90
7384;DHT22;3733;47.994;8.820;2023-05-13T00:34:13;10.80;99.90
7384;DHT22;3733;47.994;8.820;2023-05-13T00:36:38;10.80;99.90
7384;DHT22;3733;47.994;8.820;2023-05-13T00:39:04;10.80;99.90
7384;DHT22;3733;47.994;8.820;2023-05-13T00:41:30;10.90;99.90
7384;DHT22;3733;47.994;8.820;2023-05-13T00:43:56;10.90;99.90
7384;DHT22;3733;47.994;8.820;2023-05-13T00:46:22;10.80;99.90
7384;DHT22;3733;47.994;8.820;2023-05-13T00:48:49;10.90;99.90
7384;DHT22;3733;47.994;8.820;2023-05-13T00:51:15;10.80;99.90
7384;DHT22;3733;47.994;8.820;2023-05-13T00:53:41;10.80;99.90
7384;DHT22;3733;47.994;8.820;2023-05-13T00:56:07;10.80;99.90
7384;DHT22;3733;47.994;8.820;2023-05-13T00:58:33;10.80;99.90
7384;DHT22;3733;47.994;8.820;2023-05-13T01:01:12;10.80;99.90
7384;DHT22;3733;47.994;8.820;2023-05-13T01:09:06;10.80;99.90
7384;DHT22;3733;47.994;8.820;2023-05-13T01:11:39;10.80;99.90
7384;DHT22;3733;47.994;8.820;2023-05-13T01:14:11;10.80;99.90
7384;DHT22;3733;47.994;8.820;2023-05-13T01:16:45;10.80;99.90
7384;DHT22;3733;47.994;8.820;2023-05-13T01:19:43;10.80;99.90
7384;DHT22;3733;47.994;8.820;2023-05-13T01:22:09;10.80;99.90
7384;DHT22;3733;47.994;8.820;2023-05-13T01:24:35;10.80;99.90
7384;DHT22;3733;47.994;8.820;2023-05-13T01:27:00;10.80;99.90
7384;DHT22;3733;47.994;8.820;2023-05-13T01:29:27;10.80;99.90
7384;DHT22;3733;47.994;8.820;2023-05-13T01:31:54;10.80;99.90
7384;DHT22;3733;47.994;8.820;2023-05-13T01:34:21;10.80;99.90
7384;DHT22;3733;47.994;8.820;2023-05-13T01:36:47;10.80;99.90
7384;DHT22;3733;47.994;8.820;2023-05-13T01:39:13;10.80;99.90
7384;DHT22;3733;47.994;8.820;2023-05-13T01:41:40;10.70;99.90
7384;DHT22;3733;47.994;8.820;2023-05-13T01:44:05;10.70;99.90
7384;DHT22;3733;47.994;8.820;2023-05-13T01:46:31;10.70;99.90
7384;DHT22;3733;47.994;8.820;2023-05-13T01:48:56;10.70;99.90
7384;DHT22;3733;47.994;8.820;2023-05-13T01:51:22;10.70;99.90
7384;DHT22;3733;47.994;8.820;2023-05-13T01:53:48;10.70;99.90
7384;DHT22;3733;47.994;8.820;2023-05-13T01:56:13;10.80;99.90
7384;DHT22;3733;47.994;8.820;2023-05-13T01:58:39;10.70;99.90
7384;DHT22;3733;47.994;8.820;2023-05-13T02:01:05;10.70;99.90
7384;DHT22;3733;47.994;8.820;2023-05-13T02:03:31;10.70;99.90
7384;DHT22;3733;47.994;8.820;2023-05-13T02:05:56;10.70;99.90
7384;DHT22;3733;47.994;8.820;2023-05-13T02:08:22;10.70;99.90
7384;DHT22;3733;47.994;8.820;2023-05-13T02:10:59;10.70;99.90
7384;DHT22;3733;47.994;8.820;2023-05-13T02:13:25;10.70;99.90
7384;DHT22;3733;47.994;8.820;2023-05-13T02:15:52;10.70;99.90
7384;DHT22;3733;47.994;8.820;2023-05-13T02:18:17;10.70;99.90
7384;DHT22;3733;47.994;8.820;2023-05-13T02:20:43;10.60;99.90
7384;DHT22;3733;47.994;8.820;2023-05-13T02:23:09;10.60;99.90
7384;DHT22;3733;47.994;8.820;2023-05-13T02:25:35;10.60;99.90
7384;DHT22;3733;47.994;8.820;2023-05-13T02:28:01;10.60;99.90
7384;DHT22;3733;47.994;8.820;2023-05-13T02:30:27;10.60;99.90
7384;DHT22;3733;47.994;8.820;2023-05-13T02:32:53;10.50;99.90
7384;DHT22;3733;47.994;8.820;2023-05-13T02:35:19;10.50;99.90
7384;DHT22;3733;47.994;8.820;2023-05-13T02:37:45;10.50;99.90
7384;DHT22;3733;47.994;8.820;2023-05-13T02:40:11;10.40;99.90
7384;DHT22;3733;47.994;8.820;2023-05-13T02:42:37;10.40;99.90
7384;DHT22;3733;47.994;8.820;2023-05-13T02:45:03;10.40;99.90
7384;DHT22;3733;47.994;8.820;2023-05-13T02:47:29;10.40;99.90
7384;DHT22;3733;47.994;8.820;2023-05-13T02:49:55;10.40;99.90
7384;DHT22;3733;47.994;8.820;2023-05-13T02:52:21;10.40;99.90
7384;DHT22;3733;47.994;8.820;2023-05-13T02:54:47;10.40;99.90
7384;DHT22;3733;47.994;8.820;2023-05-13T02:57:12;10.40;99.90
7384;DHT22;3733;47.994;8.820;2023-05-13T02:59:38;10.40;99.90
7384;DHT22;3733;47.994;8.820;2023-05-13T03:02:04;10.40;99.90
7384;DHT22;3733;47.994;8.820;2023-05-13T03:04:29;10.40;99.90
7384;DHT22;3733;47.994;8.820;2023-05-13T03:06:55;10.40;99.90
7384;DHT22;3733;47.994;8.820;2023-05-13T03:09:21;10.40;99.90
7384;DHT22;3733;47.994;8.820;2023-05-13T03:11:47;10.40;99.90
7384;DHT22;3733;47.994;8.820;2023-05-13T03:14:12;10.40;99.90
7384;DHT22;3733;47.994;8.820;2023-05-13T03:16:38;10.40;99.90
7384;DHT22;3733;47.994;8.820;2023-05-13T03:19:03;10.40;99.90
7384;DHT22;3733;47.994;8.820;2023-05-13T03:21:29;10.40;99.90
7384;DHT22;3733;47.994;8.820;2023-05-13T03:23:54;10.40;99.90
7384;DHT22;3733;47.994;8.820;2023-05-13T03:26:20;10.30;99.90
7384;DHT22;3733;47.994;8.820;2023-05-13T03:28:46;10.40;99.90
7384;DHT22;3733;47.994;8.820;2023-05-13T03:31:12;10.30;99.90
7384;DHT22;3733;47.994;8.820;2023-05-13T03:33:38;10.30;99.90
7384;DHT22;3733;47.994;8.820;2023-05-13T03:36:05;10.30;99.90
7384;DHT22;3733;47.994;8.820;2023-05-13T03:38:31;10.40;99.90
7384;DHT22;3733;47.994;8.820;2023-05-13T03:40:57;10.30;99.90
7384;DHT22;3733;47.994;8.820;2023-05-13T03:43:22;10.30;99.90
7384;DHT22;3733;47.994;8.820;2023-05-13T03:45:48;10.30;99.90
7384;DHT22;3733;47.994;8.820;2023-05-13T03:48:15;10.30;99.90
7384;DHT22;3733;47.994;8.820;2023-05-13T03:50:41;10.30;99.90
7384;DHT22;3733;47.994;8.820;2023-05-13T03:53:08;10.30;99.90
7384;DHT22;3733;47.994;8.820;2023-05-13T03:55:34;10.30;99.90
7384;DHT22;3733;47.994;8.820;2023-05-13T03:58:09;10.30;99.90
7384;DHT22;3733;47.994;8.820;2023-05-13T04:00:34;10.30;99.90
7384;DHT22;3733;47.994;8.820;2023-05-13T04:03:00;10.30;99.90
7384;DHT22;3733;47.994;8.820;2023-05-13T04:05:25;10.30;99.90
7384;DHT22;3733;47.994;8.820;2023-05-13T04:07:51;10.30;99.90
7384;DHT22;3733;47.994;8.820;2023-05-13T04:10:17;10.30;99.90
7384;DHT22;3733;47.994;8.820;2023-05-13T04:12:42;10.30;99.90
7384;DHT22;3733;47.994;8.820;2023-05-13T04:15:08;10.30;99.90
7384;DHT22;3733;47.994;8.820;2023-05-13T04:17:34;10.30;99.90
7384;DHT22;3733;47.994;8.820;2023-05-13T04:19:59;10.30;99.90
7384;DHT22;3733;47.994;8.820;2023-05-13T04:22:25;10.30;99.90
7384;DHT22;3733;47.994;8.820;2023-05-13T04:24:51;10.40;99.90
7384;DHT22;3733;47.994;8.820;2023-05-13T04:27:21;10.40;99.90
7384;DHT22;3733;47.994;8.820;2023-05-13T04:29:47;10.40;99.90
7384;DHT22;3733;47.994;8.820;2023-05-13T04:32:13;10.40;99.90
7384;DHT22;3733;47.994;8.820;2023-05-13T04:34:42;10.40;99.90
7384;DHT22;3733;47.994;8.820;2023-05-13T04:37:07;10.40;99.90
7384;DHT22;3733;47.994;8.820;2023-05-13T04:39:33;10.40;99.90
7384;DHT22;3733;47.994;8.820;2023-05-13T04:41:59;10.40;99.90
7384;DHT22;3733;47.994;8.820;2023-05-13T04:44:24;10.40;99.90
7384;DHT22;3733;47.994;8.820;2023-05-13T04:46:50;10.40;99.90
7384;DHT22;3733;47.994;8.820;2023-05-13T04:49:15;10.40;99.90
7384;DHT22;3733;47.994;8.820;2023-05-13T04:51:41;10.40;99.90
7384;DHT22;3733;47.994;8.820;2023-05-13T04:54:06;10.40;99.90
7384;DHT22;3733;47.994;8.820;2023-05-13T04:56:32;10.40;99.90
7384;DHT22;3733;47.994;8.820;2023-05-13T04:58:58;10.40;99.90
7384;DHT22;3733;47.994;8.820;2023-05-13T05:01:23;10.40;99.90
7384;DHT22;3733;47.994;8.820;2023-05-13T05:03:49;10.40;99.90
7384;DHT22;3733;47.994;8.820;2023-05-13T05:06:15;10.50;99.90
7384;DHT22;3733;47.994;8.820;2023-05-13T05:08:42;10.50;99.90
7384;DHT22;3733;47.994;8.820;2023-05-13T05:11:07;10.50;99.90
7384;DHT22;3733;47.994;8.820;2023-05-13T05:13:34;10.50;99.90
7384;DHT22;3733;47.994;8.820;2023-05-13T05:15:59;10.50;99.90
7384;DHT22;3733;47.994;8.820;2023-05-13T05:18:25;10.50;99.90
7384;DHT22;3733;47.994;8.820;2023-05-13T05:20:51;10.50;99.90
7384;DHT22;3733;47.994;8.820;2023-05-13T05:23:16;10.50;99.90
7384;DHT22;3733;47.994;8.820;2023-05-13T05:25:42;10.50;99.90
7384;DHT22;3733;47.994;8.820;2023-05-13T05:28:07;10.50;99.90
7384;DHT22;3733;47.994;8.820;2023-05-13T05:30:34;10.50;99.90
7384;DHT22;3733;47.994;8.820;2023-05-13T05:33:05;10.40;99.90
7384;DHT22;3733;47.994;8.820;2023-05-13T05:35:31;10.40;99.90
7384;DHT22;3733;47.994;8.820;2023-05-13T05:37:58;10.50;99.90
7384;DHT22;3733;47.994;8.820;2023-05-13T05:40:23;10.40;99.90
7384;DHT22;3733;47.994;8.820;2023-05-13T05:42:49;10.40;99.90
7384;DHT22;3733;47.994;8.820;2023-05-13T05:45:14;10.40;99.90
7384;DHT22;3733;47.994;8.820;2023-05-13T05:47:40;10.40;99.90
7384;DHT22;3733;47.994;8.820;2023-05-13T05:50:06;10.40;99.90
7384;DHT22;3733;47.994;8.820;2023-05-13T05:52:32;10.50;99.90
7384;DHT22;3733;47.994;8.820;2023-05-13T05:54:57;10.50;99.90
7384;DHT22;3733;47.994;8.820;2023-05-13T05:57:23;10.50;99.90
7384;DHT22;3733;47.994;8.820;2023-05-13T05:59:49;10.60;99.90
7384;DHT22;3733;47.994;8.820;2023-05-13T06:02:15;10.70;99.90
7384;DHT22;3733;47.994;8.820;2023-05-13T06:04:41;10.70;99.90
7384;DHT22;3733;47.994;8.820;2023-05-13T06:07:06;10.80;99.90
7384;DHT22;3733;47.994;8.820;2023-05-13T06:09:33;10.80;99.90
7384;DHT22;3733;47.994;8.820;2023-05-13T06:11:58;10.80;99.90
7384;DHT22;3733;47.994;8.820;2023-05-13T06:14:24;10.90;99.90
7384;DHT22;3733;47.994;8.820;2023-05-13T06:16:49;10.90;99.90
7384;DHT22;3733;47.994;8.820;2023-05-13T06:19:15;10.90;99.90
7384;DHT22;3733;47.994;8.820;2023-05-13T06:21:41;10.90;99.90
7384;DHT22;3733;47.994;8.820;2023-05-13T06:24:08;10.90;99.90
7384;DHT22;3733;47.994;8.820;2023-05-13T06:26:33;11.00;99.90
7384;DHT22;3733;47.994;8.820;2023-05-13T06:28:59;10.90;99.90
7384;DHT22;3733;47.994;8.820;2023-05-13T06:31:25;10.90;99.90
7384;DHT22;3733;47.994;8.820;2023-05-13T06:33:51;10.90;99.90
7384;DHT22;3733;47.994;8.820;2023-05-13T06:36:16;10.90;99.90
7384;DHT22;3733;47.994;8.820;2023-05-13T06:38:42;10.90;99.90
7384;DHT22;3733;47.994;8.820;2023-05-13T06:41:07;11.00;99.90
7384;DHT22;3733;47.994;8.820;2023-05-13T06:43:33;10.90;99.90
7384;DHT22;3733;47.994;8.820;2023-05-13T06:45:58;11.00;99.90
7384;DHT22;3733;47.994;8.820;2023-05-13T06:48:25;10.90;99.90
7384;DHT22;3733;47.994;8.820;2023-05-13T06:50:51;10.90;99.90
7384;DHT22;3733;47.994;8.820;2023-05-13T06:53:16;10.90;99.90
7384;DHT22;3733;47.994;8.820;2023-05-13T06:55:42;10.90;99.90
7384;DHT22;3733;47.994;8.820;2023-05-13T06:58:08;10.90;99.90
7384;DHT22;3733;47.994;8.820;2023-05-13T07:00:38;10.90;99.90
7384;DHT22;3733;47.994;8.820;2023-05-13T07:03:05;10.90;99.90
7384;DHT22;3733;47.994;8.820;2023-05-13T07:05:32;10.90;99.90
7384;DHT22;3733;47.994;8.820;2023-05-13T07:07:57;10.90;99.90
7384;DHT22;3733;47.994;8.820;2023-05-13T07:10:23;10.90;99.90
7384;DHT22;3733;47.994;8.820;2023-05-13T07:12:49;10.90;99.90
7384;DHT22;3733;47.994;8.820;2023-05-13T07:15:14;10.90;99.90
7384;DHT22;3733;47.994;8.820;2023-05-13T07:17:41;10.90;99.90
7384;DHT22;3733;47.994;8.820;2023-05-13T07:20:07;10.90;99.90
7384;DHT22;3733;47.994;8.820;2023-05-13T07:22:34;10.90;99.90
7384;DHT22;3733;47.994;8.820;2023-05-13T07:25:00;10.90;99.90
7384;DHT22;3733;47.994;8.820;2023-05-13T07:27:25;10.90;99.90
7384;DHT22;3733;47.994;8.820;2023-05-13T07:29:51;11.00;99.90
7384;DHT22;3733;47.994;8.820;2023-05-13T07:32:16;11.00;99.90
7384;DHT22;3733;47.994;8.820;2023-05-13T07:34:42;11.00;99.90
7384;DHT22;3733;47.994;8.820;2023-05-13T07:37:08;11.10;99.90
7384;DHT22;3733;47.994;8.820;2023-05-13T07:39:33;11.10;99.90
7384;DHT22;3733;47.994;8.820;2023-05-13T07:42:00;11.20;99.90
7384;DHT22;3733;47.994;8.820;2023-05-13T07:44:25;11.20;99.90
7384;DHT22;3733;47.994;8.820;2023-05-13T07:46:51;11.20;99.90
7384;DHT22;3733;47.994;8.820;2023-05-13T07:49:18;11.30;99.90
7384;DHT22;3733;47.994;8.820;2023-05-13T07:51:44;11.30;99.90
7384;DHT22;3733;47.994;8.820;2023-05-13T07:54:10;11.30;99.90
7384;DHT22;3733;47.994;8.820;2023-05-13T07:56:36;11.30;99.90
7384;DHT22;3733;47.994;8.820;2023-05-13T07:59:02;11.30;99.90
7384;DHT22;3733;47.994;8.820;2023-05-13T08:01:28;11.30;99.90
7384;DHT22;3733;47.994;8.820;2023-05-13T08:03:54;11.30;99.90
7384;DHT22;3733;47.994;8.820;2023-05-13T08:06:19;11.40;99.90
7384;DHT22;3733;47.994;8.820;2023-05-13T08:08:45;11.50;99.90
7384;DHT22;3733;47.994;8.820;2023-05-13T08:11:11;11.50;99.90
7384;DHT22;3733;47.994;8.820;2023-05-13T08:13:37;11.50;99.90
7384;DHT22;3733;47.994;8.820;2023-05-13T08:16:03;11.60;99.90
7384;DHT22;3733;47.994;8.820;2023-05-13T08:18:31;11.60;99.90
7384;DHT22;3733;47.994;8.820;2023-05-13T08:20:57;11.60;99.90
7384;DHT22;3733;47.994;8.820;2023-05-13T08:23:23;11.60;99.90
7384;DHT22;3733;47.994;8.820;2023-05-13T08:25:50;11.70;99.90
7384;DHT22;3733;47.994;8.820;2023-05-13T08:28:16;11.70;99.90
7384;DHT22;3733;47.994;8.820;2023-05-13T08:30:41;11.70;99.90
7384;DHT22;3733;47.994;8.820;2023-05-13T08:33:09;11.70;99.90
7384;DHT22;3733;47.994;8.820;2023-05-13T08:35:35;11.70;99.90
7384;DHT22;3733;47.994;8.820;2023-05-13T08:38:01;11.70;99.90
7384;DHT22;3733;47.994;8.820;2023-05-13T08:40:30;11.70;99.90
7384;DHT22;3733;47.994;8.820;2023-05-13T08:42:57;11.70;99.90
7384;DHT22;3733;47.994;8.820;2023-05-13T08:45:27;11.80;99.90
7384;DHT22;3733;47.994;8.820;2023-05-13T08:48:00;11.80;99.90
7384;DHT22;3733;47.994;8.820;2023-05-13T08:50:28;11.80;99.90
7384;DHT22;3733;47.994;8.820;2023-05-13T08:52:54;11.80;99.90
7384;DHT22;3733;47.994;8.820;2023-05-13T08:55:22;11.90;99.90
7384;DHT22;3733;47.994;8.820;2023-05-13T08:57:48;11.90;99.90
7384;DHT22;3733;47.994;8.820;2023-05-13T09:00:14;11.90;99.90
7384;DHT22;3733;47.994;8.820;2023-05-13T09:02:41;11.90;99.90
7384;DHT22;3733;47.994;8.820;2023-05-13T09:05:08;11.90;99.90
7384;DHT22;3733;47.994;8.820;2023-05-13T09:07:35;11.90;99.90
7384;DHT22;3733;47.994;8.820;2023-05-13T09:10:02;11.90;99.90
7384;DHT22;3733;47.994;8.820;2023-05-13T09:12:50;11.90;99.90
7384;DHT22;3733;47.994;8.820;2023-05-13T09:15:18;11.90;99.90
7384;DHT22;3733;47.994;8.820;2023-05-13T09:17:47;12.00;99.90
7384;DHT22;3733;47.994;8.820;2023-05-13T09:20:15;12.00;99.90
7384;DHT22;3733;47.994;8.820;2023-05-13T09:25:19;12.20;99.90
7384;DHT22;3733;47.994;8.820;2023-05-13T09:27:47;12.30;99.90
7384;DHT22;3733;47.994;8.820;2023-05-13T09:30:13;12.40;99.90
7384;DHT22;3733;47.994;8.820;2023-05-13T09:32:40;12.40;99.90
7384;DHT22;3733;47.994;8.820;2023-05-13T09:35:10;12.40;99.90
7384;DHT22;3733;47.994;8.820;2023-05-13T09:37:38;12.50;99.90
7384;DHT22;3733;47.994;8.820;2023-05-13T09:40:04;12.60;99.90
7384;DHT22;3733;47.994;8.820;2023-05-13T09:42:30;12.70;99.90
7384;DHT22;3733;47.994;8.820;2023-05-13T09:45:03;12.80;99.90
7384;DHT22;3733;47.994;8.820;2023-05-13T09:47:30;12.90;99.90
7384;DHT22;3733;47.994;8.820;2023-05-13T09:49:56;13.00;99.90
7384;DHT22;3733;47.994;8.820;2023-05-13T09:52:22;13.00;99.90
7384;DHT22;3733;47.994;8.820;2023-05-13T09:54:47;13.10;99.90
7384;DHT22;3733;47.994;8.820;2023-05-13T09:57:13;13.10;99.90
7384;DHT22;3733;47.994;8.820;2023-05-13T09:59:40;13.20;99.90
7384;DHT22;3733;47.994;8.820;2023-05-13T10:02:07;13.20;99.90
7384;DHT22;3733;47.994;8.820;2023-05-13T10:04:33;13.30;99.90
7384;DHT22;3733;47.994;8.820;2023-05-13T10:07:02;13.30;99.90
7384;DHT22;3733;47.994;8.820;2023-05-13T10:09:32;13.40;99.90
7384;DHT22;3733;47.994;8.820;2023-05-13T10:11:59;13.40;99.90
7384;DHT22;3733;47.994;8.820;2023-05-13T10:14:26;13.40;99.90
7384;DHT22;3733;47.994;8.820;2023-05-13T10:16:52;13.40;99.90
7384;DHT22;3733;47.994;8.820;2023-05-13T10:19:18;13.40;99.90
7384;DHT22;3733;47.994;8.820;2023-05-13T10:21:45;13.40;99.90
7384;DHT22;3733;47.994;8.820;2023-05-13T10:24:12;13.40;99.90
7384;DHT22;3733;47.994;8.820;2023-05-13T10:26:38;13.30;99.90
7384;DHT22;3733;47.994;8.820;2023-05-13T10:29:06;13.30;99.90
7384;DHT22;3733;47.994;8.820;2023-05-13T10:31:33;13.30;99.90
7384;DHT22;3733;47.994;8.820;2023-05-13T10:33:59;13.20;99.90
7384;DHT22;3733;47.994;8.820;2023-05-13T10:45:04;13.10;99.90
7384;DHT22;3733;47.994;8.820;2023-05-13T10:47:31;13.10;99.90
7384;DHT22;3733;47.994;8.820;2023-05-13T10:49:57;13.10;99.90
7384;DHT22;3733;47.994;8.820;2023-05-13T10:52:49;13.20;99.90
7384;DHT22;3733;47.994;8.820;2023-05-13T10:55:18;13.20;99.90
7384;DHT22;3733;47.994;8.820;2023-05-13T11:00:35;13.40;99.90
7384;DHT22;3733;47.994;8.820;2023-05-13T11:05:46;13.40;99.90
7384;DHT22;3733;47.994;8.820;2023-05-13T11:08:35;13.30;99.90
7384;DHT22;3733;47.994;8.820;2023-05-13T11:11:01;13.30;99.90
7384;DHT22;3733;47.994;8.820;2023-05-13T11:13:36;13.20;99.90
7384;DHT22;3733;47.994;8.820;2023-05-13T11:16:04;13.30;99.90
7384;DHT22;3733;47.994;8.820;2023-05-13T11:18:33;13.40;99.90
7384;DHT22;3733;47.994;8.820;2023-05-13T11:21:06;13.40;99.90
7384;DHT22;3733;47.994;8.820;2023-05-13T11:23:33;13.60;99.90
7384;DHT22;3733;47.994;8.820;2023-05-13T11:26:14;13.70;99.90
7384;DHT22;3733;47.994;8.820;2023-05-13T11:31:49;14.00;99.90
7384;DHT22;3733;47.994;8.820;2023-05-13T11:34:21;14.00;99.90
7384;DHT22;3733;47.994;8.820;2023-05-13T11:39:29;13.90;99.90
7384;DHT22;3733;47.994;8.820;2023-05-13T11:41:55;13.80;99.90
7384;DHT22;3733;47.994;8.820;2023-05-13T11:44:23;13.70;99.90
7384;DHT22;3733;47.994;8.820;2023-05-13T11:49:36;13.60;99.90
7384;DHT22;3733;47.994;8.820;2023-05-13T11:52:10;13.50;99.90
7384;DHT22;3733;47.994;8.820;2023-05-13T11:54:54;13.40;99.90
7384;DHT22;3733;47.994;8.820;2023-05-13T12:00:05;13.40;99.90
7384;DHT22;3733;47.994;8.820;2023-05-13T12:02:35;13.40;99.90
7384;DHT22;3733;47.994;8.820;2023-05-13T12:05:09;13.40;99.90
7384;DHT22;3733;47.994;8.820;2023-05-13T12:07:36;13.40;99.90
7384;DHT22;3733;47.994;8.820;2023-05-13T12:10:03;13.40;99.90
7384;DHT22;3733;47.994;8.820;2023-05-13T12:12:31;13.30;99.90
7384;DHT22;3733;47.994;8.820;2023-05-13T12:15:05;13.20;99.90
7384;DHT22;3733;47.994;8.820;2023-05-13T12:17:32;13.10;99.90
7384;DHT22;3733;47.994;8.820;2023-05-13T12:22:59;13.10;99.90
7384;DHT22;3733;47.994;8.820;2023-05-13T12:33:16;13.70;99.90
7384;DHT22;3733;47.994;8.820;2023-05-13T12:35:43;14.00;99.90
7384;DHT22;3733;47.994;8.820;2023-05-13T12:38:14;14.30;99.90
7384;DHT22;3733;47.994;8.820;2023-05-13T12:40:41;14.40;99.90
7384;DHT22;3733;47.994;8.820;2023-05-13T12:43:07;14.40;99.90
7384;DHT22;3733;47.994;8.820;2023-05-13T12:45:36;14.30;99.90
7384;DHT22;3733;47.994;8.820;2023-05-13T12:48:04;14.30;99.90
7384;DHT22;3733;47.994;8.820;2023-05-13T12:50:29;14.20;99.90
7384;DHT22;3733;47.994;8.820;2023-05-13T12:52:55;14.30;99.90
7384;DHT22;3733;47.994;8.820;2023-05-13T12:55:22;14.20;99.90
7384;DHT22;3733;47.994;8.820;2023-05-13T12:58:01;14.10;99.90
7384;DHT22;3733;47.994;8.820;2023-05-13T13:00:28;14.00;99.90
7384;DHT22;3733;47.994;8.820;2023-05-13T13:02:55;13.90;99.90
7384;DHT22;3733;47.994;8.820;2023-05-13T13:05:22;13.90;99.90
7384;DHT22;3733;47.994;8.820;2023-05-13T13:07:49;13.90;99.90
7384;DHT22;3733;47.994;8.820;2023-05-13T13:10:15;13.90;99.90
7384;DHT22;3733;47.994;8.820;2023-05-13T13:12:41;13.90;99.90
7384;DHT22;3733;47.994;8.820;2023-05-13T13:15:08;13.90;99.90
7384;DHT22;3733;47.994;8.820;2023-05-13T13:17:35;13.90;99.90
7384;DHT22;3733;47.994;8.820;2023-05-13T13:20:00;13.80;99.90
7384;DHT22;3733;47.994;8.820;2023-05-13T13:22:26;13.70;99.90
7384;DHT22;3733;47.994;8.820;2023-05-13T13:24:52;13.60;99.90
7384;DHT22;3733;47.994;8.820;2023-05-13T13:27:18;13.60;99.90
7384;DHT22;3733;47.994;8.820;2023-05-13T13:29:43;13.50;99.90
7384;DHT22;3733;47.994;8.820;2023-05-13T13:32:09;13.40;99.90
7384;DHT22;3733;47.994;8.820;2023-05-13T13:34:35;13.30;99.90
7384;DHT22;3733;47.994;8.820;2023-05-13T13:37:02;13.20;99.90
7384;DHT22;3733;47.994;8.820;2023-05-13T13:39:27;13.20;99.90
7384;DHT22;3733;47.994;8.820;2023-05-13T13:41:53;13.10;99.90
7384;DHT22;3733;47.994;8.820;2023-05-13T13:44:19;13.00;99.90
7384;DHT22;3733;47.994;8.820;2023-05-13T13:46:44;12.90;99.90
7384;DHT22;3733;47.994;8.820;2023-05-13T13:49:10;12.90;99.90
7384;DHT22;3733;47.994;8.820;2023-05-13T13:51:36;12.90;99.90
7384;DHT22;3733;47.994;8.820;2023-05-13T13:54:07;12.90;99.90
7384;DHT22;3733;47.994;8.820;2023-05-13T13:56:37;12.90;99.90
7384;DHT22;3733;47.994;8.820;2023-05-13T13:59:03;12.80;99.90
7384;DHT22;3733;47.994;8.820;2023-05-13T14:01:29;12.80;99.90
7384;DHT22;3733;47.994;8.820;2023-05-13T14:04:18;12.80;99.90
7384;DHT22;3733;47.994;8.820;2023-05-13T14:06:44;12.70;99.90
7384;DHT22;3733;47.994;8.820;2023-05-13T14:09:10;12.70;99.90
7384;DHT22;3733;47.994;8.820;2023-05-13T14:11:36;12.70;99.90
7384;DHT22;3733;47.994;8.820;2023-05-13T14:14:02;12.70;99.90
7384;DHT22;3733;47.994;8.820;2023-05-13T14:16:27;12.70;99.90
7384;DHT22;3733;47.994;8.820;2023-05-13T14:18:53;12.70;99.90
7384;DHT22;3733;47.994;8.820;2023-05-13T14:21:19;12.70;99.90
7384;DHT22;3733;47.994;8.820;2023-05-13T14:23:44;12.70;99.90
7384;DHT22;3733;47.994;8.820;2023-05-13T14:26:10;12.80;99.90
7384;DHT22;3733;47.994;8.820;2023-05-13T14:28:37;12.70;99.90
7384;DHT22;3733;47.994;8.820;2023-05-13T14:31:03;12.70;99.90
7384;DHT22;3733;47.994;8.820;2023-05-13T14:33:30;12.70;99.90
7384;DHT22;3733;47.994;8.820;2023-05-13T14:35:55;12.60;99.90
7384;DHT22;3733;47.994;8.820;2023-05-13T14:38:21;12.60;99.90
7384;DHT22;3733;47.994;8.820;2023-05-13T14:40:46;12.50;99.90
7384;DHT22;3733;47.994;8.820;2023-05-13T14:43:12;12.40;99.90
7384;DHT22;3733;47.994;8.820;2023-05-13T14:45:38;12.40;99.90
7384;DHT22;3733;47.994;8.820;2023-05-13T14:48:03;12.40;99.90
7384;DHT22;3733;47.994;8.820;2023-05-13T14:50:29;12.40;99.90
7384;DHT22;3733;47.994;8.820;2023-05-13T14:52:54;12.40;99.90
7384;DHT22;3733;47.994;8.820;2023-05-13T14:55:20;12.40;99.90
7384;DHT22;3733;47.994;8.820;2023-05-13T14:57:46;12.40;99.90
7384;DHT22;3733;47.994;8.820;2023-05-13T15:00:12;12.40;99.90
7384;DHT22;3733;47.994;8.820;2023-05-13T15:02:38;12.40;99.90
7384;DHT22;3733;47.994;8.820;2023-05-13T15:05:03;12.40;99.90
7384;DHT22;3733;47.994;8.820;2023-05-13T15:07:29;12.40;99.90
7384;DHT22;3733;47.994;8.820;2023-05-13T15:09:55;12.40;99.90
7384;DHT22;3733;47.994;8.820;2023-05-13T15:12:21;12.40;99.90
7384;DHT22;3733;47.994;8.820;2023-05-13T15:14:56;12.30;99.90
7384;DHT22;3733;47.994;8.820;2023-05-13T15:17:22;12.30;99.90
7384;DHT22;3733;47.994;8.820;2023-05-13T15:19:48;12.20;99.90
7384;DHT22;3733;47.994;8.820;2023-05-13T15:22:14;12.20;99.90
7384;DHT22;3733;47.994;8.820;2023-05-13T15:24:41;12.10;99.90
7384;DHT22;3733;47.994;8.820;2023-05-13T15:27:07;12.10;99.90
7384;DHT22;3733;47.994;8.820;2023-05-13T15:29:33;12.00;99.90
7384;DHT22;3733;47.994;8.820;2023-05-13T15:31:59;12.00;99.90
7384;DHT22;3733;47.994;8.820;2023-05-13T15:34:25;12.10;99.90
7384;DHT22;3733;47.994;8.820;2023-05-13T15:36:50;12.10;99.90
7384;DHT22;3733;47.994;8.820;2023-05-13T15:39:16;12.10;99.90
7384;DHT22;3733;47.994;8.820;2023-05-13T15:41:42;12.00;99.90
7384;DHT22;3733;47.994;8.820;2023-05-13T15:44:07;12.00;99.90
7384;DHT22;3733;47.994;8.820;2023-05-13T15:46:33;12.00;99.90
7384;DHT22;3733;47.994;8.820;2023-05-13T15:48:59;12.00;99.90
7384;DHT22;3733;47.994;8.820;2023-05-13T15:51:26;12.10;99.90
7384;DHT22;3733;47.994;8.820;2023-05-13T15:53:51;12.00;99.90
7384;DHT22;3733;47.994;8.820;2023-05-13T15:56:18;12.00;99.90
7384;DHT22;3733;47.994;8.820;2023-05-13T15:58:43;12.00;99.90
7384;DHT22;3733;47.994;8.820;2023-05-13T16:01:09;11.90;99.90
7384;DHT22;3733;47.994;8.820;2023-05-13T16:03:35;11.90;99.90
7384;DHT22;3733;47.994;8.820;2023-05-13T16:06:01;11.90;99.90
7384;DHT22;3733;47.994;8.820;2023-05-13T16:08:26;11.80;99.90
7384;DHT22;3733;47.994;8.820;2023-05-13T16:10:52;11.80;99.90
7384;DHT22;3733;47.994;8.820;2023-05-13T16:13:18;11.80;99.90
7384;DHT22;3733;47.994;8.820;2023-05-13T16:15:44;11.80;99.90
7384;DHT22;3733;47.994;8.820;2023-05-13T16:18:10;11.80;99.90
7384;DHT22;3733;47.994;8.820;2023-05-13T16:20:36;11.80;99.90
7384;DHT22;3733;47.994;8.820;2023-05-13T16:23:01;11.80;99.90
7384;DHT22;3733;47.994;8.820;2023-05-13T16:25:27;11.80;99.90
7384;DHT22;3733;47.994;8.820;2023-05-13T16:27:53;11.80;99.90
7384;DHT22;3733;47.994;8.820;2023-05-13T16:30:19;11.80;99.90
7384;DHT22;3733;47.994;8.820;2023-05-13T16:32:45;11.80;99.90
7384;DHT22;3733;47.994;8.820;2023-05-13T16:35:17;11.80;99.90
7384;DHT22;3733;47.994;8.820;2023-05-13T16:37:43;11.80;99.90
7384;DHT22;3733;47.994;8.820;2023-05-13T16:40:09;11.80;99.90
7384;DHT22;3733;47.994;8.820;2023-05-13T16:42:35;11.80;99.90